createdAt,value
2022-11-24T00:01:11.144Z,89.62
2022-11-24T00:03:39.405Z,90.40
2022-11-24T00:06:09.134Z,89.53
2022-11-24T00:08:39.983Z,89.88
2022-11-24T00:11:09.870Z,90.61
2022-11-24T00:13:39.288Z,90.14
2022-11-24T00:16:09.066Z,89.47
2022-11-24T00:18:36.796Z,89.44
2022-11-24T00:21:04.591Z,89.40
2022-11-24T00:23:32.754Z,88.40
2022-11-24T00:26:10.392Z,88.42
2022-11-24T00:28:39.741Z,88.63
2022-11-24T00:31:17.546Z,88.67
2022-11-24T00:33:46.829Z,87.95
2022-11-24T00:36:15.425Z,88.67
2022-11-24T00:38:44.072Z,88.36
2022-11-24T00:41:13.639Z,89.38
2022-11-24T00:43:42.111Z,88.17
2022-11-24T00:46:09.924Z,88.59
2022-11-24T00:48:37.818Z,87.71
2022-11-24T00:51:07.249Z,88.76
2022-11-24T00:53:35.701Z,88.32
2022-11-24T00:56:03.888Z,89.37
2022-11-24T00:58:34.420Z,89.24
2022-11-24T01:01:06.710Z,88.82
2022-11-24T01:03:34.705Z,89.82
2022-11-24T01:06:06.696Z,89.62
2022-11-24T01:08:34.914Z,89.87
2022-11-24T01:11:13.669Z,90.07
2022-11-24T01:13:44.569Z,90.20
2022-11-24T01:16:17.123Z,89.88
2022-11-24T01:18:45.528Z,88.72
2022-11-24T01:21:13.661Z,89.12
2022-11-24T01:23:42.203Z,89.28
2022-11-24T01:26:16.228Z,89.22
2022-11-24T01:28:47.339Z,89.55
2022-11-24T01:31:16.259Z,89.24
2022-11-24T01:33:44.619Z,89.29
2022-11-24T01:36:12.603Z,88.96
2022-11-24T01:38:40.634Z,88.91
2022-11-24T01:41:11.904Z,89.30
2022-11-24T01:43:40.885Z,89.47
2022-11-24T01:46:18.097Z,89.66
2022-11-24T01:48:49.705Z,89.48
2022-11-24T01:51:23.453Z,88.88
2022-11-24T01:53:57.057Z,88.50
2022-11-24T01:56:25.508Z,88.98
2022-11-24T01:58:56.953Z,89.07
2022-11-24T02:01:26.536Z,88.90
2022-11-24T02:03:54.974Z,89.02
2022-11-24T02:06:28.000Z,88.48
2022-11-24T02:08:59.573Z,88.78
2022-11-24T02:11:30.446Z,88.86
2022-11-24T02:13:58.531Z,88.41
2022-11-24T02:16:28.209Z,88.76
2022-11-24T02:18:55.989Z,89.36
2022-11-24T02:21:24.348Z,88.19
2022-11-24T02:23:58.408Z,88.37
2022-11-24T02:26:38.178Z,88.06
2022-11-24T02:29:05.888Z,87.64
2022-11-24T02:31:34.957Z,86.88
2022-11-24T02:34:02.768Z,87.76
2022-11-24T02:36:31.113Z,88.14
2022-11-24T02:38:58.784Z,88.24
2022-11-24T02:41:29.072Z,88.31
2022-11-24T02:44:00.957Z,88.18
2022-11-24T02:46:28.826Z,88.29
2022-11-24T02:48:56.595Z,87.73
2022-11-24T02:51:24.333Z,87.84
2022-11-24T02:53:52.065Z,87.78
2022-11-24T02:56:19.884Z,87.53
2022-11-24T02:58:47.534Z,87.25
2022-11-24T03:01:17.256Z,87.80
2022-11-24T03:03:45.213Z,88.07
2022-11-24T03:06:13.569Z,88.89
2022-11-24T03:08:41.239Z,89.15
2022-11-24T03:11:09.245Z,89.60
2022-11-24T03:13:36.885Z,90.28
2022-11-24T03:16:08.932Z,90.30
2022-11-24T03:18:38.139Z,89.45
2022-11-24T03:21:06.332Z,89.12
2022-11-24T03:23:34.068Z,89.26
2022-11-24T03:26:09.935Z,89.78
2022-11-24T03:28:38.115Z,89.04
2022-11-24T03:31:07.806Z,88.31
2022-11-24T03:33:35.876Z,89.73
2022-11-24T03:36:07.420Z,89.57
2022-11-24T03:38:35.133Z,89.94
2022-11-24T03:41:03.526Z,89.86
2022-11-24T03:43:31.444Z,90.18
2022-11-24T03:45:59.823Z,90.60
2022-11-24T03:48:27.525Z,89.67
2022-11-24T03:50:56.956Z,89.02
2022-11-24T03:53:28.024Z,89.37
2022-11-24T03:55:56.855Z,88.90
2022-11-24T03:58:25.530Z,88.86
2022-11-24T04:00:56.201Z,88.78
2022-11-24T04:03:24.284Z,89.50
2022-11-24T04:05:52.785Z,88.69
2022-11-24T04:08:21.017Z,88.63
2022-11-24T04:10:52.866Z,88.35
2022-11-24T04:13:21.983Z,87.78
2022-11-24T04:15:49.932Z,88.05
2022-11-24T04:18:18.576Z,87.00
2022-11-24T04:20:46.705Z,87.71
2022-11-24T04:23:14.668Z,87.35
2022-11-24T04:25:43.625Z,87.44
2022-11-24T04:28:14.404Z,87.16
2022-11-24T04:30:44.742Z,86.67
2022-11-24T04:33:14.313Z,86.52
2022-11-24T04:35:42.268Z,87.41
2022-11-24T04:38:10.688Z,87.10
2022-11-24T04:40:38.729Z,88.39
2022-11-24T04:43:07.228Z,88.35
2022-11-24T04:45:36.480Z,88.74
2022-11-24T04:48:04.774Z,89.34
2022-11-24T04:50:32.615Z,89.01
2022-11-24T04:53:00.846Z,89.15
2022-11-24T04:55:28.627Z,89.64
2022-11-24T04:57:57.076Z,89.52
2022-11-24T05:00:24.784Z,90.20
2022-11-24T05:02:54.209Z,90.06
2022-11-24T05:05:21.907Z,89.77
2022-11-24T05:07:50.000Z,89.77
2022-11-24T05:10:36.500Z,89.54
2022-11-24T05:13:07.810Z,89.00
2022-11-24T05:15:35.545Z,88.98
2022-11-24T05:18:07.298Z,89.83
2022-11-24T05:20:35.260Z,88.89
2022-11-24T05:23:04.184Z,88.26
2022-11-24T05:25:32.142Z,88.26
2022-11-24T05:28:01.364Z,87.57
2022-11-24T05:30:29.439Z,87.48
2022-11-24T05:32:57.435Z,88.03
2022-11-24T05:35:26.445Z,88.95
2022-11-24T05:37:54.419Z,88.57
2022-11-24T05:40:24.377Z,88.69
2022-11-24T05:42:52.196Z,88.83
2022-11-24T05:45:21.743Z,89.49
2022-11-24T05:47:51.229Z,89.15
2022-11-24T05:50:20.845Z,89.48
2022-11-24T05:52:50.593Z,89.39
2022-11-24T05:55:19.906Z,91.22
2022-11-24T05:57:48.125Z,91.27
2022-11-24T06:00:17.966Z,90.67
2022-11-24T06:02:46.440Z,90.77
2022-11-24T06:05:14.159Z,90.85
2022-11-24T06:07:42.189Z,90.55
2022-11-24T06:10:11.526Z,91.40
2022-11-24T06:12:39.554Z,91.66
2022-11-24T06:15:08.406Z,91.09
2022-11-24T06:17:36.360Z,90.70
2022-11-24T06:20:05.355Z,90.54
2022-11-24T06:22:33.355Z,90.02
2022-11-24T06:25:01.880Z,89.93
2022-11-24T06:27:30.906Z,90.20
2022-11-24T06:29:58.704Z,90.05
2022-11-24T06:32:26.386Z,90.65
2022-11-24T06:34:54.397Z,90.98
2022-11-24T06:37:22.082Z,88.80
2022-11-24T06:39:50.345Z,88.51
2022-11-24T06:42:18.842Z,87.26
2022-11-24T06:44:48.729Z,87.11
2022-11-24T06:47:16.647Z,87.97
2022-11-24T06:49:44.289Z,87.38
2022-11-24T06:52:11.950Z,87.30
2022-11-24T06:54:40.401Z,87.01
2022-11-24T06:57:08.078Z,87.06
2022-11-24T06:59:35.749Z,86.84
2022-11-24T07:02:04.824Z,86.88
2022-11-24T07:04:33.223Z,87.25
2022-11-24T07:07:01.065Z,87.75
2022-11-24T07:09:29.591Z,86.56
2022-11-24T07:11:57.440Z,85.91
2022-11-24T07:14:25.717Z,85.54
2022-11-24T07:16:53.446Z,85.92
2022-11-24T07:19:25.023Z,85.53
2022-11-24T07:21:53.059Z,85.84
2022-11-24T07:24:20.954Z,84.89
2022-11-24T07:26:48.630Z,85.01
2022-11-24T07:29:17.128Z,84.46
2022-11-24T07:31:45.957Z,83.74
2022-11-24T07:34:14.646Z,83.02
2022-11-24T07:36:45.066Z,82.92
2022-11-24T07:39:13.693Z,81.82
2022-11-24T07:41:41.345Z,81.65
2022-11-24T07:44:09.563Z,81.60
2022-11-24T07:46:37.249Z,81.27
2022-11-24T07:49:05.686Z,81.05
2022-11-24T07:51:33.349Z,80.72
2022-11-24T07:54:02.552Z,81.08
2022-11-24T07:56:30.513Z,81.48
2022-11-24T07:58:58.217Z,80.36
2022-11-24T08:01:26.662Z,79.56
2022-11-24T08:03:54.430Z,80.70
2022-11-24T08:06:26.106Z,79.74
2022-11-24T08:08:56.836Z,79.53
2022-11-24T08:11:27.333Z,78.96
2022-11-24T08:13:55.050Z,79.18
2022-11-24T08:16:23.355Z,80.30
2022-11-24T08:18:52.186Z,80.03
2022-11-24T08:21:21.174Z,79.46
2022-11-24T08:23:48.869Z,79.54
2022-11-24T08:26:19.338Z,79.40
2022-11-24T08:28:55.041Z,79.40
2022-11-24T08:31:23.346Z,78.41
2022-11-24T08:33:51.097Z,78.49
2022-11-24T08:36:20.560Z,78.31
2022-11-24T08:38:49.400Z,78.95
2022-11-24T08:41:18.291Z,78.70
2022-11-24T08:43:46.015Z,77.86
2022-11-24T08:46:17.617Z,77.87
2022-11-24T08:48:49.992Z,77.79
2022-11-24T08:51:20.943Z,76.57
2022-11-24T08:53:48.913Z,73.16
2022-11-24T08:56:16.607Z,71.07
2022-11-24T08:58:44.410Z,70.22
2022-11-24T09:01:16.010Z,71.22
2022-11-24T09:03:49.916Z,72.72
2022-11-24T09:06:20.142Z,73.54
2022-11-24T09:08:48.504Z,75.08
2022-11-24T09:11:17.975Z,75.93
2022-11-24T09:13:46.025Z,76.92
2022-11-24T09:16:16.688Z,78.31
2022-11-24T09:18:44.537Z,79.82
2022-11-24T09:21:14.999Z,81.68
2022-11-24T09:23:43.451Z,82.32
2022-11-24T09:26:14.073Z,83.67
2022-11-24T09:28:42.301Z,85.44
2022-11-24T09:31:12.619Z,87.18
2022-11-24T09:33:42.241Z,87.69
2022-11-24T09:36:11.367Z,87.73
2022-11-24T09:38:39.293Z,88.58
2022-11-24T09:41:35.804Z,90.40
2022-11-24T09:44:10.133Z,91.07
2022-11-24T09:46:50.045Z,92.14
2022-11-24T09:49:28.624Z,91.58
2022-11-24T09:51:58.061Z,93.49
2022-11-24T09:54:29.458Z,94.64
2022-11-24T09:57:00.744Z,94.84
2022-11-24T09:59:29.393Z,96.15
2022-11-24T10:01:57.575Z,96.83
2022-11-24T10:04:30.508Z,96.47
2022-11-24T10:07:08.033Z,96.93
2022-11-24T10:09:53.023Z,96.78
2022-11-24T10:12:34.537Z,95.46
2022-11-24T10:15:18.824Z,95.08
2022-11-24T10:18:03.875Z,95.30
2022-11-24T10:20:48.095Z,95.42
2022-11-24T10:23:39.833Z,95.69
2022-11-24T10:26:13.515Z,96.01
2022-11-24T10:28:44.983Z,95.50
2022-11-24T10:31:23.457Z,95.63
2022-11-24T10:33:51.833Z,95.07
2022-11-24T10:36:32.638Z,94.91
2022-11-24T10:39:06.649Z,95.24
2022-11-24T10:41:43.588Z,95.07
2022-11-24T10:44:14.836Z,94.41
2022-11-24T10:46:42.980Z,95.92
2022-11-24T10:49:19.811Z,95.09
2022-11-24T10:51:57.573Z,95.43
2022-11-24T10:54:25.384Z,95.31
2022-11-24T10:56:54.984Z,95.67
2022-11-24T10:59:31.973Z,96.18
2022-11-24T11:02:00.770Z,95.27
2022-11-24T11:04:30.468Z,95.33
2022-11-24T11:07:19.226Z,95.57
2022-11-24T11:09:47.321Z,95.25
2022-11-24T11:15:27.203Z,91.75
2022-11-24T11:17:58.961Z,91.59
2022-11-24T11:20:31.065Z,90.82
2022-11-24T11:23:03.001Z,92.08
2022-11-24T11:25:35.165Z,91.78
2022-11-24T11:28:27.683Z,91.32
2022-11-24T11:31:19.136Z,90.21
2022-11-24T11:34:03.738Z,91.23
2022-11-24T11:36:34.076Z,91.54
2022-11-24T11:39:04.808Z,90.65
2022-11-24T11:41:35.179Z,91.03
2022-11-24T11:44:16.317Z,90.90
2022-11-24T11:46:45.385Z,91.69
2022-11-24T11:49:13.721Z,90.77
2022-11-24T11:52:09.146Z,91.35
2022-11-24T11:54:56.243Z,90.59
2022-11-24T11:57:34.237Z,91.34
2022-11-24T12:00:11.968Z,91.61
2022-11-24T12:03:05.979Z,91.35
2022-11-24T12:05:47.619Z,92.54
2022-11-24T12:08:31.329Z,93.54
2022-11-24T12:11:15.778Z,93.58
2022-11-24T12:13:55.222Z,93.24
2022-11-24T12:16:40.366Z,92.82
2022-11-24T12:19:20.876Z,92.00
2022-11-24T12:21:57.991Z,91.40
2022-11-24T12:24:36.768Z,90.43
2022-11-24T12:27:22.572Z,89.74
2022-11-24T12:30:06.043Z,89.97
2022-11-24T12:33:07.114Z,88.18
2022-11-24T12:35:38.462Z,86.60
2022-11-24T12:38:21.492Z,87.22
2022-11-24T12:43:59.783Z,83.08
2022-11-24T12:46:41.163Z,80.04
2022-11-24T12:49:19.798Z,76.31
2022-11-24T12:51:52.305Z,77.40
2022-11-24T12:54:22.410Z,78.74
2022-11-24T12:56:59.778Z,77.88
2022-11-24T12:59:36.886Z,80.14
2022-11-24T13:02:19.633Z,79.09
2022-11-24T13:04:54.554Z,79.56
2022-11-24T13:07:27.956Z,79.58
2022-11-24T13:13:19.607Z,80.95
2022-11-24T13:19:09.974Z,83.91
2022-11-24T13:21:58.597Z,84.23
2022-11-24T13:24:30.995Z,82.32
2022-11-24T13:27:39.850Z,82.98
2022-11-24T13:30:50.879Z,84.24
2022-11-24T13:33:40.098Z,83.54
2022-11-24T13:36:30.269Z,83.83
2022-11-24T13:38:58.900Z,83.53
2022-11-24T13:42:09.584Z,83.71
2022-11-24T13:44:51.702Z,84.65
2022-11-24T13:47:39.752Z,84.05
2022-11-24T13:50:14.894Z,84.40
2022-11-24T13:52:49.682Z,83.80
2022-11-24T13:55:31.146Z,83.63
2022-11-24T13:58:03.411Z,82.29
2022-11-24T14:00:32.587Z,82.37
2022-11-24T14:03:02.542Z,82.67
2022-11-24T14:05:38.081Z,80.97
2022-11-24T14:08:07.639Z,79.71
2022-11-24T14:10:38.053Z,79.11
2022-11-24T14:13:17.759Z,79.18
2022-11-24T14:15:45.764Z,79.47
2022-11-24T14:18:23.158Z,79.66
2022-11-24T14:20:52.529Z,79.11
2022-11-24T14:23:20.233Z,79.34
2022-11-24T14:25:49.283Z,79.78
2022-11-24T14:28:23.756Z,79.98
2022-11-24T14:30:51.919Z,80.04
2022-11-24T14:33:20.805Z,80.24
2022-11-24T14:35:51.524Z,80.02
2022-11-24T14:38:20.568Z,80.16
2022-11-24T14:40:51.280Z,80.68
2022-11-24T14:43:27.059Z,81.14
2022-11-24T14:45:57.294Z,81.42
2022-11-24T14:48:27.919Z,81.42
2022-11-24T14:51:07.003Z,81.08
2022-11-24T14:53:36.837Z,81.24
2022-11-24T14:56:09.596Z,81.69
2022-11-24T14:58:42.006Z,82.03
2022-11-24T15:01:19.414Z,81.81
2022-11-24T15:03:47.592Z,82.90
2022-11-24T15:06:20.199Z,82.82
2022-11-24T15:08:50.371Z,82.47
2022-11-24T15:11:18.680Z,82.42
2022-11-24T15:13:54.415Z,83.20
2022-11-24T15:16:25.865Z,82.98
2022-11-24T15:18:59.337Z,83.00
2022-11-24T15:21:34.501Z,83.29
2022-11-24T15:24:15.841Z,84.27
2022-11-24T15:26:44.940Z,84.48
2022-11-24T15:29:14.123Z,84.45
2022-11-24T15:31:46.436Z,84.79
2022-11-24T15:34:18.840Z,85.80
2022-11-24T15:36:46.497Z,85.13
2022-11-24T15:39:15.516Z,85.31
2022-11-24T15:41:43.529Z,85.41
2022-11-24T15:44:11.394Z,85.75
2022-11-24T15:46:39.854Z,85.15
2022-11-24T15:49:07.729Z,85.81
2022-11-24T15:51:38.308Z,85.41
2022-11-24T15:54:07.178Z,87.02
2022-11-24T15:56:37.727Z,88.15
2022-11-24T15:59:05.576Z,87.11
2022-11-24T16:01:35.138Z,87.13
2022-11-24T16:04:03.863Z,86.91
2022-11-24T16:06:32.154Z,87.03
2022-11-24T16:08:59.874Z,87.01
2022-11-24T16:11:28.576Z,87.20
2022-11-24T16:13:57.610Z,87.24
2022-11-24T16:16:25.847Z,87.34
2022-11-24T16:18:53.797Z,87.26
2022-11-24T16:21:21.817Z,87.82
2022-11-24T16:23:49.530Z,87.50
2022-11-24T16:26:17.947Z,87.40
2022-11-24T16:28:45.779Z,87.17
2022-11-24T16:31:16.213Z,87.15
2022-11-24T16:33:44.694Z,86.99
2022-11-24T16:36:12.640Z,87.16
2022-11-24T16:38:40.691Z,87.94
2022-11-24T16:41:10.335Z,88.23
2022-11-24T16:43:38.690Z,88.82
2022-11-24T16:46:21.389Z,89.07
2022-11-24T16:48:50.748Z,89.41
2022-11-24T16:51:19.735Z,88.80
2022-11-24T16:53:48.516Z,89.16
2022-11-24T16:56:17.401Z,89.42
2022-11-24T16:58:45.754Z,89.68
2022-11-24T17:01:14.680Z,89.33
2022-11-24T17:03:44.129Z,88.74
2022-11-24T17:06:15.691Z,88.68
2022-11-24T17:08:45.373Z,88.94
2022-11-24T17:11:15.133Z,88.91
2022-11-24T17:13:44.249Z,88.72
2022-11-24T17:16:14.641Z,90.32
2022-11-24T17:18:43.945Z,91.11
2022-11-24T17:21:14.559Z,91.56
2022-11-24T17:23:42.344Z,91.69
2022-11-24T17:26:12.684Z,91.80
2022-11-24T17:28:41.375Z,89.81
2022-11-24T17:31:10.128Z,88.93
2022-11-24T17:33:37.806Z,88.46
2022-11-24T17:36:07.933Z,88.13
2022-11-24T17:38:37.224Z,88.28
2022-11-24T17:41:05.051Z,88.45
2022-11-24T17:43:33.343Z,87.93
2022-11-24T17:46:03.718Z,88.52
2022-11-24T17:48:32.801Z,88.31
2022-11-24T17:51:01.985Z,89.01
2022-11-24T17:53:31.572Z,88.60
2022-11-24T17:56:02.881Z,88.27
2022-11-24T17:58:31.650Z,87.87
2022-11-24T18:00:59.624Z,88.48
2022-11-24T18:03:31.796Z,88.39
2022-11-24T18:06:05.929Z,88.46
2022-11-24T18:08:35.929Z,88.35
2022-11-24T18:11:05.075Z,88.26
2022-11-24T18:13:55.285Z,88.14
2022-11-24T18:16:20.825Z,88.45
2022-11-24T18:18:50.409Z,88.65
2022-11-24T18:21:19.193Z,88.86
2022-11-24T18:23:48.247Z,89.49
2022-11-24T18:26:17.337Z,89.38
2022-11-24T18:28:45.896Z,89.46
2022-11-24T18:31:15.334Z,90.02
2022-11-24T18:33:44.656Z,90.23
2022-11-24T18:36:14.361Z,91.15
2022-11-24T18:38:42.400Z,90.62
2022-11-24T18:41:13.345Z,90.10
2022-11-24T18:43:41.330Z,90.08
2022-11-24T18:46:11.484Z,89.86
2022-11-24T18:48:39.580Z,90.79
2022-11-24T18:51:08.559Z,90.57
2022-11-24T18:53:36.669Z,90.06
2022-11-24T18:56:06.462Z,89.84
2022-11-24T18:58:37.321Z,89.29
2022-11-24T19:01:09.403Z,88.80
2022-11-24T19:03:42.310Z,88.54
2022-11-24T19:06:15.629Z,88.77
2022-11-24T19:08:45.108Z,88.43
2022-11-24T19:11:19.403Z,88.53
2022-11-24T19:13:49.359Z,88.33
2022-11-24T19:16:17.424Z,88.20
2022-11-24T19:18:50.420Z,88.15
2022-11-24T19:21:21.493Z,88.15
2022-11-24T19:23:50.032Z,87.71
2022-11-24T19:26:17.778Z,87.68
2022-11-24T19:28:45.939Z,87.96
2022-11-24T19:31:16.803Z,87.74
2022-11-24T19:33:44.961Z,87.88
2022-11-24T19:36:14.981Z,88.10
2022-11-24T19:38:43.655Z,88.14
2022-11-24T19:41:13.479Z,87.96
2022-11-24T19:43:41.850Z,87.89
2022-11-24T19:46:12.036Z,87.62
2022-11-24T19:48:43.201Z,87.60
2022-11-24T19:51:14.556Z,87.65
2022-11-24T19:53:43.153Z,87.40
2022-11-24T19:56:13.158Z,87.69
2022-11-24T19:58:42.005Z,87.39
2022-11-24T20:01:12.088Z,87.35
2022-11-24T20:03:42.132Z,87.36
2022-11-24T20:06:12.772Z,87.25
2022-11-24T20:08:41.590Z,87.04
2022-11-24T20:11:11.873Z,86.74
2022-11-24T20:13:42.107Z,86.57
2022-11-24T20:16:12.011Z,86.46
2022-11-24T20:18:43.886Z,85.86
2022-11-24T20:21:13.697Z,85.85
2022-11-24T20:23:42.379Z,85.87
2022-11-24T20:26:12.518Z,85.40
2022-11-24T20:28:40.437Z,85.15
2022-11-24T20:31:10.873Z,85.60
2022-11-24T20:33:38.670Z,85.89
2022-11-24T20:36:10.912Z,85.99
2022-11-24T20:38:39.894Z,85.85
2022-11-24T20:41:09.648Z,86.02
2022-11-24T20:43:37.945Z,86.16
2022-11-24T20:46:07.873Z,86.48
2022-11-24T20:48:36.133Z,86.41
2022-11-24T20:51:05.119Z,86.60
2022-11-24T20:53:34.611Z,87.03
2022-11-24T20:56:06.072Z,86.92
2022-11-24T20:58:34.811Z,87.10
2022-11-24T21:01:07.714Z,87.42
2022-11-24T21:03:42.616Z,88.38
2022-11-24T21:06:10.996Z,89.11
2022-11-24T21:08:42.074Z,89.48
2022-11-24T21:11:12.051Z,89.02
2022-11-24T21:13:41.453Z,88.20
2022-11-24T21:16:13.998Z,88.25
2022-11-24T21:18:41.713Z,87.85
2022-11-24T21:21:09.398Z,87.63
2022-11-24T21:23:37.867Z,87.59
2022-11-24T21:26:14.903Z,88.42
2022-11-24T21:28:45.750Z,88.45
2022-11-24T21:31:16.269Z,88.21
2022-11-24T21:33:45.803Z,87.74
2022-11-24T21:36:15.778Z,87.78
2022-11-24T21:38:43.741Z,88.44
2022-11-24T21:41:14.553Z,88.29
2022-11-24T21:43:42.295Z,88.39
2022-11-24T21:46:11.596Z,88.87
2022-11-24T21:48:40.946Z,88.77
2022-11-24T21:51:12.669Z,88.22
2022-11-24T21:53:40.901Z,88.41
2022-11-24T21:56:12.744Z,89.13
2022-11-24T21:58:45.489Z,89.02
2022-11-24T22:01:14.057Z,88.85
2022-11-24T22:03:41.825Z,88.21
2022-11-24T22:06:10.460Z,88.80
2022-11-24T22:08:38.380Z,88.82
2022-11-24T22:11:08.384Z,89.39
2022-11-24T22:13:36.602Z,89.10
2022-11-24T22:16:08.287Z,90.20
2022-11-24T22:18:38.457Z,89.26
2022-11-24T22:21:07.549Z,89.52
2022-11-24T22:23:37.022Z,89.18
2022-11-24T22:26:05.783Z,89.61
2022-11-24T22:28:35.503Z,89.66
2022-11-24T22:31:09.689Z,89.41
2022-11-24T22:33:37.950Z,89.78
2022-11-24T22:36:06.449Z,89.16
2022-11-24T22:38:35.890Z,89.49
2022-11-24T22:41:05.088Z,89.34
2022-11-24T22:43:33.852Z,89.57
2022-11-24T22:46:07.149Z,89.12
2022-11-24T22:48:35.988Z,89.33
2022-11-24T22:51:08.250Z,88.72
2022-11-24T22:53:37.016Z,88.80
2022-11-24T22:56:06.243Z,88.04
2022-11-24T22:58:34.913Z,87.87
2022-11-24T23:01:07.699Z,87.42
2022-11-24T23:03:36.268Z,86.83
2022-11-24T23:06:05.446Z,86.80
2022-11-24T23:08:35.007Z,86.64
2022-11-24T23:11:04.438Z,86.68
2022-11-24T23:13:32.729Z,86.31
2022-11-24T23:16:02.246Z,86.99
2022-11-24T23:18:31.909Z,86.18
2022-11-24T23:21:05.562Z,86.58
2022-11-24T23:23:33.620Z,87.35
2022-11-24T23:26:02.086Z,87.37
2022-11-24T23:28:30.625Z,86.83
2022-11-24T23:31:01.640Z,87.30
2022-11-24T23:33:31.220Z,86.57
2022-11-24T23:36:01.132Z,87.11
2022-11-24T23:38:30.149Z,86.99
2022-11-24T23:40:58.130Z,87.57
2022-11-24T23:43:26.158Z,87.62
2022-11-24T23:45:54.321Z,87.38
2022-11-24T23:48:22.053Z,87.28
2022-11-24T23:50:51.065Z,87.29
2022-11-24T23:53:19.089Z,87.35
2022-11-24T23:55:53.938Z,86.89
2022-11-24T23:58:22.356Z,87.25
